Time;durP1;ratioP1;P1;durP2;ratioP2;P2;SDS_P1;SDS_P2;PMS_P1;PMS_P2;Temp;Humidity;BMP_temperature;BMP_pressure;BME280_temperature;BME280_humidity;BME280_pressure;Samples;Min_cycle;Max_cycle;Signal;HPM_P1;HPM_P2
2022/04/05 00:02:21;;;;;;;;;;;11.60;95.50;;;;;;6242991;23;19932;-70
2022/04/05 00:04:47;;;;;;;;;;;11.60;95.70;;;;;;6215895;23;19939;-70
2022/04/05 00:07:13;;;;;;;;;;;11.60;95.60;;;;;;6243058;23;19919;-72
2022/04/05 00:09:39;;;;;;;;;;;11.60;96.00;;;;;;6243102;23;19903;-71
2022/04/05 00:12:05;;;;;;;;;;;11.50;95.60;;;;;;6243369;23;20229;-72
2022/04/05 00:14:31;;;;;;;;;;;11.50;95.40;;;;;;6242793;23;19982;-71
2022/04/05 00:16:57;;;;;;;;;;;11.60;95.60;;;;;;6242897;23;19989;-72
2022/04/05 00:19:23;;;;;;;;;;;11.60;95.10;;;;;;6107080;23;3141173;-72
2022/04/05 00:21:49;;;;;;;;;;;11.60;94.80;;;;;;6243964;23;20181;-72
2022/04/05 00:24:15;;;;;;;;;;;11.60;95.10;;;;;;6245703;23;19907;-70
2022/04/05 00:26:41;;;;;;;;;;;11.60;95.20;;;;;;6245468;23;20301;-72
2022/04/05 00:29:07;;;;;;;;;;;11.60;95.20;;;;;;6246012;23;19915;-72
2022/04/05 00:31:33;;;;;;;;;;;11.50;95.00;;;;;;6245882;23;19957;-72
2022/04/05 00:33:58;;;;;;;;;;;11.50;95.00;;;;;;6245910;23;19978;-72
2022/04/05 00:36:24;;;;;;;;;;;11.40;95.30;;;;;;6246192;23;19903;-71
2022/04/05 00:38:50;;;;;;;;;;;11.40;95.20;;;;;;6246406;23;19903;-72
2022/04/05 00:41:16;;;;;;;;;;;11.40;95.00;;;;;;6246068;23;19904;-71
2022/04/05 00:43:42;;;;;;;;;;;11.50;95.60;;;;;;6246121;23;19912;-71
2022/04/05 00:46:08;;;;;;;;;;;11.50;95.10;;;;;;6218938;23;19904;-71
2022/04/05 00:48:34;;;;;;;;;;;11.60;94.50;;;;;;6245745;23;19904;-70
2022/04/05 00:50:59;;;;;;;;;;;11.50;94.70;;;;;;6245995;23;19986;-72
2022/04/05 00:53:25;;;;;;;;;;;11.50;94.90;;;;;;6246279;23;19904;-72
2022/04/05 00:55:53;;;;;;;;;;;11.50;94.80;;;;;;6219274;23;19914;-71
2022/04/05 00:58:20;;;;;;;;;;;11.50;95.00;;;;;;6245740;23;19908;-70
2022/04/05 01:00:49;;;;;;;;;;;11.50;95.10;;;;;;6245856;23;20283;-71
2022/04/05 01:03:15;;;;;;;;;;;11.50;95.40;;;;;;6246050;23;19910;-70
2022/04/05 01:05:41;;;;;;;;;;;11.40;95.80;;;;;;6245791;23;19911;-71
2022/04/05 01:08:09;;;;;;;;;;;11.40;96.00;;;;;;6245686;23;19903;-71
2022/04/05 01:10:35;;;;;;;;;;;11.40;96.20;;;;;;6246024;23;19904;-71
2022/04/05 01:13:01;;;;;;;;;;;11.40;96.50;;;;;;6245910;23;19911;-72
2022/04/05 01:15:26;;;;;;;;;;;11.50;96.60;;;;;;6246107;23;19986;-72
2022/04/05 01:17:53;;;;;;;;;;;11.40;96.80;;;;;;6245477;23;19914;-72
2022/04/05 01:20:18;;;;;;;;;;;11.40;97.30;;;;;;6245668;23;19962;-70
2022/04/05 01:22:45;;;;;;;;;;;11.30;98.00;;;;;;6218531;23;19903;-71
2022/04/05 01:25:15;;;;;;;;;;;11.40;98.30;;;;;;6245761;23;19912;-71
2022/04/05 01:27:41;;;;;;;;;;;11.40;98.80;;;;;;6245689;23;19904;-72
2022/04/05 01:30:07;;;;;;;;;;;11.40;99.50;;;;;;6218555;23;20062;-73
2022/04/05 01:32:34;;;;;;;;;;;11.40;99.90;;;;;;6245812;23;19904;-72
2022/04/05 01:35:00;;;;;;;;;;;11.40;99.90;;;;;;6245209;23;19904;-72
2022/04/05 01:37:26;;;;;;;;;;;11.40;99.90;;;;;;6245337;23;19907;-71
2022/04/05 01:39:52;;;;;;;;;;;11.40;99.90;;;;;;6245950;23;19903;-73
2022/04/05 01:42:18;;;;;;;;;;;11.40;99.90;;;;;;6245418;23;19908;-72
2022/04/05 01:44:44;;;;;;;;;;;11.40;99.90;;;;;;6245305;23;20313;-72
2022/04/05 01:47:11;;;;;;;;;;;11.40;99.90;;;;;;6245505;23;19904;-72
2022/04/05 01:49:37;;;;;;;;;;;11.30;99.90;;;;;;6245420;23;19903;-73
2022/04/05 01:52:07;;;;;;;;;;;11.30;99.90;;;;;;6245328;23;19904;-73
2022/04/05 01:54:33;;;;;;;;;;;11.30;99.90;;;;;;6245263;23;20214;-71
2022/04/05 01:56:59;;;;;;;;;;;11.20;99.90;;;;;;6245448;23;19908;-72
2022/04/05 01:59:26;;;;;;;;;;;11.20;99.90;;;;;;6245734;23;19942;-71
2022/04/05 02:01:55;;;;;;;;;;;11.20;99.90;;;;;;6245419;23;19949;-71
2022/04/05 02:04:21;;;;;;;;;;;11.20;99.90;;;;;;6218700;23;19922;-72
2022/04/05 02:06:47;;;;;;;;;;;11.20;99.90;;;;;;6245390;23;19904;-72
2022/04/05 02:09:14;;;;;;;;;;;11.20;99.90;;;;;;6245211;23;20292;-71
2022/04/05 02:11:43;;;;;;;;;;;11.10;99.90;;;;;;6245158;23;20181;-71
2022/04/05 02:14:10;;;;;;;;;;;11.10;99.90;;;;;;6245376;23;19916;-71
2022/04/05 02:16:38;;;;;;;;;;;11.20;99.90;;;;;;6245120;23;19911;-70
2022/04/05 02:19:04;;;;;;;;;;;11.10;99.90;;;;;;6244833;23;19915;-70
2022/04/05 02:21:30;;;;;;;;;;;11.10;99.90;;;;;;6244843;23;19910;-70
2022/04/05 02:23:56;;;;;;;;;;;11.10;99.90;;;;;;6244827;23;19946;-71
2022/04/05 02:26:22;;;;;;;;;;;11.20;99.90;;;;;;6244900;23;19908;-70
2022/04/05 02:28:48;;;;;;;;;;;11.10;99.90;;;;;;6217992;23;20368;-71
2022/04/05 02:31:14;;;;;;;;;;;11.20;99.90;;;;;;6245316;23;19943;-70
2022/04/05 02:33:40;;;;;;;;;;;11.10;99.90;;;;;;6244666;23;19904;-71
2022/04/05 02:36:07;;;;;;;;;;;11.10;99.90;;;;;;6244717;23;19922;-71
2022/04/05 02:38:33;;;;;;;;;;;11.00;99.90;;;;;;6244185;23;19915;-70
2022/04/05 02:40:59;;;;;;;;;;;11.10;99.90;;;;;;6244203;23;19961;-69
2022/04/05 02:43:25;;;;;;;;;;;11.10;99.90;;;;;;6244025;23;19908;-71
2022/04/05 02:45:55;;;;;;;;;;;11.10;99.90;;;;;;6244712;23;20267;-70
2022/04/05 02:48:21;;;;;;;;;;;11.20;99.90;;;;;;6244901;23;20333;-70
2022/04/05 02:50:47;;;;;;;;;;;11.20;99.90;;;;;;6244733;23;19903;-71
2022/04/05 02:53:13;;;;;;;;;;;11.30;99.90;;;;;;6243545;23;19911;-73
2022/04/05 02:55:38;;;;;;;;;;;11.20;99.90;;;;;;6244249;23;19914;-70
2022/04/05 02:58:04;;;;;;;;;;;11.20;99.90;;;;;;6243989;23;19904;-72
2022/04/05 03:00:31;;;;;;;;;;;11.20;99.90;;;;;;6244820;23;19904;-72
2022/04/05 03:02:56;;;;;;;;;;;11.20;99.90;;;;;;6244406;23;19940;-72
2022/04/05 03:05:22;;;;;;;;;;;11.20;99.90;;;;;;6244838;23;19915;-72
2022/04/05 03:07:48;;;;;;;;;;;11.20;99.90;;;;;;6244728;23;20057;-72
2022/04/05 03:10:15;;;;;;;;;;;11.20;99.90;;;;;;6245252;23;19903;-71
2022/04/05 03:12:40;;;;;;;;;;;11.20;99.90;;;;;;6245109;23;19908;-71
2022/04/05 03:15:08;;;;;;;;;;;11.20;99.90;;;;;;6245171;23;19974;-72
2022/04/05 03:17:34;;;;;;;;;;;11.30;99.90;;;;;;6245160;23;19905;-71
2022/04/05 03:20:01;;;;;;;;;;;11.30;99.90;;;;;;6245245;23;20325;-71
2022/04/05 03:22:27;;;;;;;;;;;11.30;99.90;;;;;;6245403;23;20297;-72
2022/04/05 03:24:53;;;;;;;;;;;11.30;99.90;;;;;;6245462;23;19947;-71
2022/04/05 03:27:19;;;;;;;;;;;11.30;99.90;;;;;;6246376;23;19908;-70
2022/04/05 03:29:45;;;;;;;;;;;11.10;99.90;;;;;;6245785;23;20343;-73
2022/04/05 03:32:11;;;;;;;;;;;11.20;99.90;;;;;;6245777;23;20336;-72
2022/04/05 03:34:37;;;;;;;;;;;11.10;99.90;;;;;;6246093;23;19915;-72
2022/04/05 03:37:04;;;;;;;;;;;11.10;99.90;;;;;;6245757;23;19904;-72
2022/04/05 03:39:29;;;;;;;;;;;11.00;99.90;;;;;;6245681;23;19919;-71
2022/04/05 03:41:56;;;;;;;;;;;11.00;99.90;;;;;;6245528;23;20228;-72
2022/04/05 03:44:22;;;;;;;;;;;11.10;99.90;;;;;;6245133;23;19912;-70
2022/04/05 03:46:48;;;;;;;;;;;11.00;99.90;;;;;;6245968;23;19915;-72
2022/04/05 03:49:14;;;;;;;;;;;11.10;99.90;;;;;;6218371;23;19930;-72
2022/04/05 03:51:40;;;;;;;;;;;11.10;99.90;;;;;;6245392;23;19915;-70
2022/04/05 03:54:05;;;;;;;;;;;11.10;99.90;;;;;;6245434;23;19948;-72
2022/04/05 03:56:31;;;;;;;;;;;11.10;99.90;;;;;;6245837;23;19950;-70
2022/04/05 03:58:57;;;;;;;;;;;11.20;99.90;;;;;;6244976;23;19911;-72
2022/04/05 04:01:23;;;;;;;;;;;11.20;99.90;;;;;;6218278;23;19911;-71
2022/04/05 04:03:49;;;;;;;;;;;11.10;99.90;;;;;;6245398;23;19912;-69
2022/04/05 04:06:16;;;;;;;;;;;11.20;99.90;;;;;;6245136;23;20232;-72
2022/04/05 04:08:42;;;;;;;;;;;11.20;99.90;;;;;;6245388;23;19978;-71
2022/04/05 04:11:08;;;;;;;;;;;11.20;99.90;;;;;;6245449;23;19938;-71
2022/04/05 04:13:34;;;;;;;;;;;11.20;99.90;;;;;;6245127;23;19950;-70
2022/04/05 04:16:00;;;;;;;;;;;11.20;99.90;;;;;;6245262;23;19903;-70
2022/04/05 04:18:26;;;;;;;;;;;11.20;99.90;;;;;;6246170;23;19916;-71
2022/04/05 04:20:52;;;;;;;;;;;11.20;99.90;;;;;;6246262;23;19903;-71
2022/04/05 04:23:19;;;;;;;;;;;11.20;99.90;;;;;;6246762;23;19907;-69
2022/04/05 04:25:45;;;;;;;;;;;11.20;99.90;;;;;;6219099;23;19916;-71
2022/04/05 04:28:11;;;;;;;;;;;11.10;99.90;;;;;;6246332;23;19911;-71
2022/04/05 04:30:38;;;;;;;;;;;11.20;99.90;;;;;;6246526;23;19903;-71
2022/04/05 04:33:04;;;;;;;;;;;11.20;99.90;;;;;;6246042;23;19903;-72
2022/04/05 04:35:31;;;;;;;;;;;11.20;99.90;;;;;;6246557;23;19904;-70
2022/04/05 04:37:57;;;;;;;;;;;11.20;99.90;;;;;;6246482;23;19910;-73
2022/04/05 04:40:23;;;;;;;;;;;11.20;99.90;;;;;;6246232;23;19904;-73
2022/04/05 04:42:49;;;;;;;;;;;11.20;99.90;;;;;;6246668;23;19908;-73
2022/04/05 04:45:15;;;;;;;;;;;11.20;99.90;;;;;;6246261;23;20236;-71
2022/04/05 04:47:41;;;;;;;;;;;11.20;99.90;;;;;;6246484;23;20368;-72
2022/04/05 04:50:08;;;;;;;;;;;11.20;99.90;;;;;;6246202;23;19931;-72
2022/04/05 04:52:37;;;;;;;;;;;11.10;99.90;;;;;;6246083;23;19903;-72
2022/04/05 04:55:03;;;;;;;;;;;11.10;99.90;;;;;;6246597;23;19904;-73
2022/04/05 04:57:29;;;;;;;;;;;11.10;99.90;;;;;;6245774;23;19922;-72
2022/04/05 04:59:55;;;;;;;;;;;11.20;99.90;;;;;;6245775;23;19903;-73
2022/04/05 05:02:24;;;;;;;;;;;11.10;99.90;;;;;;6246049;23;19934;-71
2022/04/05 05:04:50;;;;;;;;;;;11.20;99.90;;;;;;6246193;23;20225;-73
2022/04/05 05:07:16;;;;;;;;;;;11.10;99.90;;;;;;6245970;23;19911;-73
2022/04/05 05:09:42;;;;;;;;;;;11.20;99.90;;;;;;6245277;23;19903;-72
2022/04/05 05:12:10;;;;;;;;;;;11.30;99.90;;;;;;6246037;23;19908;-72
2022/04/05 05:14:36;;;;;;;;;;;11.30;99.90;;;;;;6245343;23;19904;-72
2022/04/05 05:17:02;;;;;;;;;;;11.30;99.90;;;;;;6247943;23;19939;-73
2022/04/05 05:19:28;;;;;;;;;;;11.40;99.90;;;;;;6247209;23;20240;-70
2022/04/05 05:21:53;;;;;;;;;;;11.50;99.90;;;;;;6248182;23;20279;-71
2022/04/05 05:24:19;;;;;;;;;;;11.50;99.90;;;;;;6248096;23;19912;-72
2022/04/05 05:26:45;;;;;;;;;;;11.60;99.90;;;;;;6248865;23;19904;-72
2022/04/05 05:29:12;;;;;;;;;;;11.70;99.90;;;;;;6247958;23;19910;-73
2022/04/05 05:31:44;;;;;;;;;;;11.80;99.90;;;;;;6246649;23;19939;-72
2022/04/05 05:34:10;;;;;;;;;;;12.10;99.90;;;;;;6219438;23;20186;-72
2022/04/05 05:36:35;;;;;;;;;;;12.30;99.90;;;;;;6219294;23;19911;-72
2022/04/05 05:39:01;;;;;;;;;;;12.50;99.90;;;;;;6219600;23;20005;-73
2022/04/05 05:41:27;;;;;;;;;;;12.70;99.90;;;;;;6246749;23;20229;-73
2022/04/05 05:43:53;;;;;;;;;;;13.00;99.90;;;;;;6246697;23;19912;-72
2022/04/05 05:46:18;;;;;;;;;;;13.40;99.90;;;;;;6246595;23;20312;-71
2022/04/05 05:48:45;;;;;;;;;;;13.80;99.90;;;;;;6246317;23;19903;-73
2022/04/05 05:51:11;;;;;;;;;;;14.00;99.90;;;;;;6245763;23;19950;-73
2022/04/05 05:53:37;;;;;;;;;;;14.00;99.90;;;;;;6245265;23;19930;-74
2022/04/05 05:56:02;;;;;;;;;;;14.10;99.90;;;;;;6245469;23;19958;-73
2022/04/05 05:58:28;;;;;;;;;;;14.20;99.90;;;;;;6218839;23;19997;-72
2022/04/05 06:00:55;;;;;;;;;;;14.60;99.90;;;;;;6245384;23;19991;-71
2022/04/05 06:03:20;;;;;;;;;;;14.80;99.90;;;;;;6245795;23;19911;-73
2022/04/05 06:05:47;;;;;;;;;;;15.00;99.90;;;;;;6245805;23;19911;-74
2022/04/05 06:08:14;;;;;;;;;;;15.10;99.90;;;;;;6245078;23;19911;-73
2022/04/05 06:10:40;;;;;;;;;;;15.50;99.90;;;;;;6244828;23;19990;-71
2022/04/05 06:13:06;;;;;;;;;;;15.80;99.90;;;;;;6244815;23;20333;-72
2022/04/05 06:15:32;;;;;;;;;;;15.90;99.40;;;;;;6218389;23;19910;-72
2022/04/05 06:17:58;;;;;;;;;;;16.10;99.10;;;;;;6246089;23;19907;-72
2022/04/05 06:20:24;;;;;;;;;;;16.10;99.10;;;;;;6246192;23;19938;-73
2022/04/05 06:22:50;;;;;;;;;;;16.30;98.90;;;;;;6246594;23;19911;-74
2022/04/05 06:25:17;;;;;;;;;;;16.70;98.20;;;;;;6219428;23;19911;-75
2022/04/05 06:27:44;;;;;;;;;;;17.00;97.50;;;;;;6246741;23;19953;-74
2022/04/05 06:30:11;;;;;;;;;;;17.20;97.30;;;;;;6246643;23;19982;-73
2022/04/05 06:32:37;;;;;;;;;;;17.50;96.90;;;;;;6247344;23;19927;-72
2022/04/05 06:35:03;;;;;;;;;;;18.10;96.40;;;;;;6246455;23;20049;-73
2022/04/05 06:37:29;;;;;;;;;;;18.50;95.40;;;;;;6247293;23;20196;-73
2022/04/05 06:39:55;;;;;;;;;;;18.20;95.60;;;;;;6246195;23;19911;-72
2022/04/05 06:42:21;;;;;;;;;;;18.30;96.00;;;;;;6219274;23;19911;-75
2022/04/05 06:44:47;;;;;;;;;;;19.20;95.70;;;;;;6246626;23;19907;-75
2022/04/05 06:47:13;;;;;;;;;;;19.90;93.90;;;;;;6219085;23;19926;-74
2022/04/05 06:49:39;;;;;;;;;;;19.60;93.80;;;;;;6246951;23;19908;-75
2022/04/05 06:52:05;;;;;;;;;;;19.90;93.40;;;;;;6246402;23;19904;-75
2022/04/05 06:54:30;;;;;;;;;;;19.80;93.70;;;;;;6246771;23;20288;-75
2022/04/05 06:56:56;;;;;;;;;;;20.60;93.40;;;;;;6246562;23;19912;-75
2022/04/05 06:59:22;;;;;;;;;;;21.70;92.40;;;;;;6246585;23;19946;-77
2022/04/05 07:01:48;;;;;;;;;;;22.90;91.00;;;;;;6246810;23;20221;-76
2022/04/05 07:04:14;;;;;;;;;;;23.20;90.00;;;;;;6245782;23;19957;-76
2022/04/05 07:06:40;;;;;;;;;;;23.90;88.80;;;;;;6245730;23;19908;-77
2022/04/05 07:09:07;;;;;;;;;;;23.80;88.90;;;;;;6246558;23;20213;-76
2022/04/05 07:11:33;;;;;;;;;;;23.30;88.20;;;;;;6246230;23;19910;-75
2022/04/05 07:14:17;;;;;;;;;;;23.90;87.30;;;;;;6246541;23;19923;-76
2022/04/05 07:16:43;;;;;;;;;;;24.00;86.80;;;;;;6246632;23;19908;-79
2022/04/05 07:19:09;;;;;;;;;;;23.90;84.00;;;;;;6218964;23;20367;-78
2022/04/05 07:21:35;;;;;;;;;;;23.10;86.00;;;;;;6245659;23;19904;-76
2022/04/05 07:24:01;;;;;;;;;;;23.30;84.80;;;;;;6248388;23;19915;-79
2022/04/05 07:26:27;;;;;;;;;;;23.30;85.40;;;;;;6246823;23;19908;-84
2022/04/05 07:28:53;;;;;;;;;;;24.10;84.30;;;;;;6246392;23;19981;-79
2022/04/05 07:31:19;;;;;;;;;;;23.80;82.00;;;;;;6246673;23;19993;-77
2022/04/05 07:33:45;;;;;;;;;;;22.50;82.60;;;;;;6246274;23;19931;-79
2022/04/05 07:36:11;;;;;;;;;;;21.80;81.30;;;;;;6245865;23;19904;-78
2022/04/05 07:38:36;;;;;;;;;;;21.10;83.60;;;;;;6246725;23;19990;-76
2022/04/05 07:41:02;;;;;;;;;;;21.20;84.80;;;;;;6246226;23;19927;-78
2022/04/05 07:43:28;;;;;;;;;;;19.80;84.80;;;;;;6246142;23;20337;-77
2022/04/05 07:45:54;;;;;;;;;;;19.20;86.60;;;;;;6246097;23;19923;-77
2022/04/05 07:48:22;;;;;;;;;;;19.10;87.40;;;;;;6218776;23;19995;-76
2022/04/05 07:50:48;;;;;;;;;;;19.50;88.90;;;;;;6245734;23;19904;-78
2022/04/05 07:53:14;;;;;;;;;;;20.20;86.70;;;;;;6245479;23;19985;-77
2022/04/05 07:55:40;;;;;;;;;;;20.70;88.40;;;;;;6246016;23;20380;-77
2022/04/05 07:58:06;;;;;;;;;;;21.20;89.50;;;;;;6245337;23;19911;-77
2022/04/05 08:00:32;;;;;;;;;;;21.50;88.60;;;;;;6244639;23;20244;-74
2022/04/05 08:02:58;;;;;;;;;;;21.90;87.40;;;;;;6245317;23;19911;-77
2022/04/05 08:05:24;;;;;;;;;;;22.10;86.90;;;;;;6244912;23;19912;-77
2022/04/05 08:07:51;;;;;;;;;;;22.30;85.20;;;;;;6245087;23;19965;-77
2022/04/05 08:10:17;;;;;;;;;;;22.30;85.90;;;;;;6217958;23;19910;-77
2022/04/05 08:12:44;;;;;;;;;;;22.10;86.00;;;;;;6245322;23;19978;-75
2022/04/05 08:15:13;;;;;;;;;;;21.90;84.10;;;;;;6245304;23;19908;-76
2022/04/05 08:17:39;;;;;;;;;;;21.90;84.30;;;;;;6245584;23;19973;-77
2022/04/05 08:20:05;;;;;;;;;;;22.00;84.30;;;;;;6218293;23;19917;-77
2022/04/05 08:22:31;;;;;;;;;;;22.20;84.50;;;;;;6244851;23;19994;-76
2022/04/05 08:24:57;;;;;;;;;;;22.30;81.90;;;;;;6244788;23;19911;-75
2022/04/05 08:27:23;;;;;;;;;;;22.50;84.00;;;;;;6245106;23;19958;-78
2022/04/05 08:29:49;;;;;;;;;;;22.50;78.70;;;;;;6245421;23;19933;-75
2022/04/05 08:32:15;;;;;;;;;;;22.60;79.60;;;;;;6245654;23;20206;-74
2022/04/05 08:34:42;;;;;;;;;;;22.90;79.50;;;;;;6245202;23;19946;-75
2022/04/05 08:37:08;;;;;;;;;;;22.70;78.60;;;;;;6218047;23;19904;-74
2022/04/05 08:39:43;;;;;;;;;;;22.50;82.70;;;;;;6245084;23;19993;-74
2022/04/05 08:42:09;;;;;;;;;;;22.30;84.90;;;;;;6245389;23;19904;-75
2022/04/05 08:44:35;;;;;;;;;;;22.50;84.30;;;;;;6246249;23;19919;-73
2022/04/05 08:47:02;;;;;;;;;;;22.50;83.60;;;;;;6246597;23;19904;-74
2022/04/05 08:49:29;;;;;;;;;;;22.50;83.30;;;;;;6245358;23;19903;-75
2022/04/05 08:51:55;;;;;;;;;;;22.60;83.40;;;;;;6245905;23;20186;-76
2022/04/05 08:54:20;;;;;;;;;;;22.60;85.00;;;;;;6246533;23;19904;-74
2022/04/05 08:56:47;;;;;;;;;;;22.70;86.30;;;;;;6219679;23;20431;-74
2022/04/05 08:59:16;;;;;;;;;;;22.70;85.20;;;;;;6246371;23;19904;-73
2022/04/05 09:01:43;;;;;;;;;;;22.30;85.00;;;;;;6246077;23;19904;-74
2022/04/05 09:04:10;;;;;;;;;;;21.90;85.80;;;;;;6246304;23;19912;-75
2022/04/05 09:06:36;;;;;;;;;;;21.90;87.50;;;;;;6246732;23;19908;-74
2022/04/05 09:15:17;;;;;;;;;;;21.80;87.50;;;;;;6243395;23;19929;-73
2022/04/05 09:17:47;;;;;;;;;;;21.60;87.30;;;;;;6246465;23;20236;-73
2022/04/05 09:20:13;;;;;;;;;;;21.70;87.10;;;;;;6219220;23;20206;-73
2022/04/05 09:22:39;;;;;;;;;;;21.90;85.80;;;;;;6246340;23;19916;-73
2022/04/05 09:25:06;;;;;;;;;;;21.90;84.60;;;;;;6247067;23;19942;-74
2022/04/05 09:30:36;;;;;;;;;;;21.30;86.30;;;;;;6245487;23;19927;-73
2022/04/05 09:33:04;;;;;;;;;;;21.00;86.90;;;;;;6220503;23;19914;-73
2022/04/05 09:35:39;;;;;;;;;;;20.80;88.50;;;;;;6221118;23;19904;-74
2022/04/05 09:38:12;;;;;;;;;;;20.50;90.30;;;;;;6246795;23;20170;-73
2022/04/05 09:40:39;;;;;;;;;;;20.70;89.20;;;;;;6247102;23;19968;-74
2022/04/05 09:43:17;;;;;;;;;;;20.30;89.90;;;;;;6247320;23;19911;-73
2022/04/05 09:45:44;;;;;;;;;;;20.30;90.30;;;;;;6258586;23;19918;-72
2022/04/05 09:48:10;;;;;;;;;;;20.20;90.00;;;;;;6240625;23;19967;-73
2022/04/05 09:50:54;;;;;;;;;;;20.10;90.30;;;;;;6259730;23;19911;-74
2022/04/05 09:53:20;;;;;;;;;;;20.30;90.40;;;;;;6247300;23;19911;-74
2022/04/05 09:55:46;;;;;;;;;;;20.20;90.50;;;;;;6246479;23;19904;-75
2022/04/05 09:58:12;;;;;;;;;;;20.40;90.40;;;;;;6246142;23;19945;-72
2022/04/05 10:00:38;;;;;;;;;;;20.30;90.60;;;;;;6247171;23;19934;-74
2022/04/05 10:03:05;;;;;;;;;;;20.50;89.60;;;;;;6246026;23;19929;-74
2022/04/05 10:05:32;;;;;;;;;;;20.40;88.80;;;;;;6245801;23;20232;-75
2022/04/05 10:07:58;;;;;;;;;;;20.10;89.90;;;;;;6245611;23;19903;-74
2022/04/05 10:10:24;;;;;;;;;;;20.10;90.80;;;;;;6245210;23;19903;-74
2022/04/05 10:12:51;;;;;;;;;;;20.20;90.50;;;;;;6245882;23;19910;-74
2022/04/05 10:15:18;;;;;;;;;;;20.30;90.10;;;;;;6245707;23;20309;-74
2022/04/05 10:17:45;;;;;;;;;;;20.40;90.20;;;;;;6245128;23;19927;-75
2022/04/05 10:20:16;;;;;;;;;;;20.20;90.40;;;;;;6244564;23;19980;-73
2022/04/05 10:22:42;;;;;;;;;;;20.00;90.90;;;;;;6245108;23;19913;-74
2022/04/05 10:25:09;;;;;;;;;;;20.00;90.80;;;;;;6247100;23;19923;-76
2022/04/05 10:27:35;;;;;;;;;;;20.10;90.90;;;;;;6246046;23;20356;-75
2022/04/05 10:30:24;;;;;;;;;;;20.30;90.50;;;;;;6245692;23;19953;-76
2022/04/05 10:33:01;;;;;;;;;;;20.30;90.80;;;;;;6245653;23;19904;-73
2022/04/05 10:35:29;;;;;;;;;;;20.50;90.90;;;;;;6246366;23;19904;-75
2022/04/05 10:38:14;;;;;;;;;;;20.60;90.80;;;;;;6245974;23;19950;-73
2022/04/05 10:40:40;;;;;;;;;;;20.60;90.80;;;;;;6246055;23;19973;-75
2022/04/05 10:43:17;;;;;;;;;;;20.70;90.70;;;;;;6246018;23;19926;-75
2022/04/05 10:45:43;;;;;;;;;;;20.50;91.20;;;;;;6245707;23;19994;-73
2022/04/05 10:48:21;;;;;;;;;;;20.70;90.00;;;;;;6245465;23;19903;-76
2022/04/05 10:51:07;;;;;;;;;;;20.70;89.80;;;;;;6245220;23;20347;-75
2022/04/05 10:53:34;;;;;;;;;;;20.90;88.80;;;;;;6246289;23;19915;-75
2022/04/05 10:56:02;;;;;;;;;;;21.00;88.20;;;;;;6245309;23;19939;-74
2022/04/05 10:58:29;;;;;;;;;;;21.10;88.50;;;;;;6244687;23;19904;-74
2022/04/05 11:01:13;;;;;;;;;;;21.00;88.60;;;;;;6244022;23;19993;-73
2022/04/05 11:03:40;;;;;;;;;;;21.00;88.30;;;;;;6244995;23;19903;-75
2022/04/05 11:06:06;;;;;;;;;;;20.80;88.40;;;;;;6244890;23;19961;-74
2022/04/05 11:08:33;;;;;;;;;;;20.50;89.20;;;;;;6245497;23;19911;-75
2022/04/05 11:11:00;;;;;;;;;;;20.50;89.30;;;;;;6244978;23;19904;-75
2022/04/05 11:13:31;;;;;;;;;;;20.40;89.60;;;;;;6244965;23;19904;-74
2022/04/05 11:15:57;;;;;;;;;;;20.50;88.60;;;;;;6244075;23;19904;-75
2022/04/05 11:18:24;;;;;;;;;;;20.60;88.70;;;;;;6245753;23;19908;-74
2022/04/05 11:20:51;;;;;;;;;;;21.00;87.90;;;;;;6246287;23;19988;-76
2022/04/05 11:23:19;;;;;;;;;;;20.90;86.90;;;;;;6245534;23;19914;-76
2022/04/05 11:25:45;;;;;;;;;;;21.20;85.90;;;;;;6245366;23;19919;-75
2022/04/05 11:28:25;;;;;;;;;;;21.40;84.70;;;;;;6218668;23;19911;-75
2022/04/05 11:30:55;;;;;;;;;;;21.30;85.40;;;;;;6185275;23;19923;-76
2022/04/05 11:33:22;;;;;;;;;;;21.50;85.20;;;;;;6184397;23;19950;-76
2022/04/05 11:35:48;;;;;;;;;;;21.80;84.10;;;;;;6185050;23;19908;-75
2022/04/05 11:38:16;;;;;;;;;;;21.70;83.30;;;;;;6183489;23;19911;-74
2022/04/05 11:40:43;;;;;;;;;;;21.80;83.60;;;;;;6185932;23;19912;-74
2022/04/05 11:43:28;;;;;;;;;;;21.70;84.20;;;;;;6185722;23;19941;-75
2022/04/05 11:45:56;;;;;;;;;;;21.90;82.80;;;;;;6183298;23;20211;-76
2022/04/05 11:48:23;;;;;;;;;;;22.00;82.60;;;;;;6186147;23;19908;-74
2022/04/05 11:50:49;;;;;;;;;;;22.00;81.30;;;;;;6186093;23;20237;-75
2022/04/05 11:53:19;;;;;;;;;;;21.90;80.20;;;;;;6185751;23;19904;-74
2022/04/05 11:56:00;;;;;;;;;;;21.80;80.80;;;;;;6185731;23;19910;-73
2022/04/05 11:58:27;;;;;;;;;;;21.80;80.90;;;;;;6184901;23;20030;-74
2022/04/05 12:00:54;;;;;;;;;;;21.80;81.00;;;;;;6184879;23;19915;-73
2022/04/05 12:03:19;;;;;;;;;;;21.40;81.30;;;;;;6185895;23;19951;-74
2022/04/05 12:05:46;;;;;;;;;;;21.40;81.60;;;;;;6185065;23;19967;-75
2022/04/05 12:08:13;;;;;;;;;;;21.50;81.70;;;;;;6186183;23;19977;-75
2022/04/05 12:10:40;;;;;;;;;;;21.70;82.10;;;;;;6185437;23;19915;-75
2022/04/05 12:13:06;;;;;;;;;;;21.60;82.10;;;;;;6185454;23;19954;-73
2022/04/05 12:15:33;;;;;;;;;;;21.50;83.10;;;;;;6185207;23;20288;-71
2022/04/05 12:18:18;;;;;;;;;;;21.70;82.00;;;;;;6185324;23;19931;-75
2022/04/05 12:21:02;;;;;;;;;;;21.60;82.10;;;;;;6186558;23;20290;-74
2022/04/05 12:23:30;;;;;;;;;;;21.50;82.90;;;;;;6186220;23;19904;-75
2022/04/05 12:26:02;;;;;;;;;;;21.50;83.80;;;;;;6186464;23;19956;-74
2022/04/05 12:28:28;;;;;;;;;;;21.70;83.40;;;;;;6186844;23;19959;-74
2022/04/05 12:31:02;;;;;;;;;;;21.80;83.20;;;;;;6246014;23;19912;-76
2022/04/05 12:33:28;;;;;;;;;;;21.70;82.90;;;;;;6246115;23;19986;-75
2022/04/05 12:35:54;;;;;;;;;;;21.60;83.70;;;;;;6246681;23;19935;-75
2022/04/05 12:38:20;;;;;;;;;;;21.60;83.70;;;;;;6246180;23;20356;-75
2022/04/05 12:40:46;;;;;;;;;;;21.60;83.40;;;;;;6218924;23;19959;-75
2022/04/05 12:43:15;;;;;;;;;;;21.80;84.10;;;;;;6246042;23;20229;-75
2022/04/05 12:45:41;;;;;;;;;;;21.90;83.40;;;;;;6246484;23;19965;-74
2022/04/05 12:48:14;;;;;;;;;;;21.70;83.90;;;;;;6245347;23;19907;-74
2022/04/05 12:50:49;;;;;;;;;;;21.60;84.80;;;;;;6245299;23;19903;-74
2022/04/05 12:53:25;;;;;;;;;;;21.30;86.20;;;;;;6245510;23;19907;-73
2022/04/05 12:55:55;;;;;;;;;;;21.30;86.20;;;;;;6219076;23;19904;-75
2022/04/05 12:58:34;;;;;;;;;;;21.40;87.50;;;;;;6245726;23;19904;-74
2022/04/05 13:01:00;;;;;;;;;;;21.60;87.30;;;;;;6218414;23;19903;-75
2022/04/05 13:03:30;;;;;;;;;;;21.50;88.20;;;;;;6218271;23;19903;-74
2022/04/05 13:08:40;;;;;;;;;;;21.30;87.90;;;;;;6245724;23;19922;-74
2022/04/05 13:11:26;;;;;;;;;;;21.40;88.10;;;;;;6245431;23;19942;-73
2022/04/05 13:14:02;;;;;;;;;;;21.30;88.90;;;;;;6246265;23;19942;-74
2022/04/05 13:16:28;;;;;;;;;;;21.60;89.10;;;;;;6245801;23;19904;-73
2022/04/05 13:18:54;;;;;;;;;;;21.50;89.70;;;;;;6246036;23;19904;-75
2022/04/05 13:21:23;;;;;;;;;;;21.50;89.80;;;;;;6248495;23;19904;-74
2022/04/05 13:24:04;;;;;;;;;;;21.20;91.00;;;;;;6248868;23;20229;-76
2022/04/05 13:26:31;;;;;;;;;;;21.40;91.00;;;;;;6246383;23;19908;-75
2022/04/05 13:29:18;;;;;;;;;;;21.50;91.30;;;;;;6245954;23;20343;-75
2022/04/05 13:31:49;;;;;;;;;;;21.60;91.40;;;;;;6220088;23;20034;-76
2022/04/05 13:34:16;;;;;;;;;;;21.60;91.90;;;;;;6248453;23;20305;-74
2022/04/05 13:36:42;;;;;;;;;;;21.50;92.40;;;;;;6220358;23;19903;-73
2022/04/05 13:39:09;;;;;;;;;;;21.50;92.10;;;;;;6247539;23;19904;-73
2022/04/05 13:41:35;;;;;;;;;;;21.50;91.90;;;;;;6247345;23;19908;-75
2022/04/05 13:44:02;;;;;;;;;;;21.20;92.90;;;;;;6247540;23;19958;-75
2022/04/05 13:46:29;;;;;;;;;;;21.00;93.60;;;;;;6247363;23;19946;-75
2022/04/05 13:48:55;;;;;;;;;;;21.00;93.90;;;;;;6247059;23;20292;-75
2022/04/05 13:51:22;;;;;;;;;;;21.20;93.70;;;;;;6246928;23;20202;-74
2022/04/05 13:53:49;;;;;;;;;;;21.20;93.70;;;;;;6246798;23;19910;-73
2022/04/05 13:56:14;;;;;;;;;;;21.40;93.70;;;;;;6247319;23;19930;-74
2022/04/05 13:58:40;;;;;;;;;;;21.20;94.00;;;;;;6246790;23;19907;-74
2022/04/05 14:01:07;;;;;;;;;;;20.80;94.10;;;;;;6246598;23;19903;-75
2022/04/05 14:03:33;;;;;;;;;;;21.00;94.40;;;;;;6246643;23;19946;-74
2022/04/05 14:05:58;;;;;;;;;;;21.00;94.60;;;;;;6246432;23;19915;-75
2022/04/05 14:08:24;;;;;;;;;;;21.10;94.70;;;;;;6246763;23;19916;-75
2022/04/05 14:10:50;;;;;;;;;;;21.10;94.60;;;;;;6219653;23;19903;-75
2022/04/05 14:13:16;;;;;;;;;;;21.20;94.30;;;;;;6219716;23;19907;-76
2022/04/05 14:15:42;;;;;;;;;;;21.00;94.90;;;;;;6247270;23;19903;-74
2022/04/05 14:18:07;;;;;;;;;;;21.10;94.80;;;;;;6220283;23;20181;-75
2022/04/05 14:20:33;;;;;;;;;;;20.80;94.90;;;;;;6246630;23;19904;-74
2022/04/05 14:22:59;;;;;;;;;;;20.50;95.70;;;;;;6246772;23;20332;-74
2022/04/05 14:25:25;;;;;;;;;;;20.50;95.80;;;;;;6219651;23;19915;-77
2022/04/05 14:27:51;;;;;;;;;;;20.40;96.20;;;;;;6246924;23;19904;-76
2022/04/05 14:30:17;;;;;;;;;;;20.50;96.10;;;;;;6246759;23;19903;-75